LiveATC.Net - Listen to live air traffic control over the Internet!


ICAO: CYHU  IATA: YHU   Airport: Saint-Hubert Airport
City: Montreal   State/Province: Quebec
Country: Canada   Continent: North America
CYHU METAR Weather: CYHU 240000Z AUTO 13013G22KT 9SM BKN140 BKN160 25/17 A2990 RMK SLP127 DENSITY ALT 1400FT
CYHU Flight Activity (FlightAware)
CYHU Webcam:  (Airport Webcams) 

CYHU Tower
Feed Status: UP   Listeners: 0
Listen in your browser - HTML5 player (in browser, HTML5)
Click here to listen with your own player (launches your MP3 player)
Archive Access: CYHU Tower
FacilityFrequency
Saint-Hubert Tower118.400
Saint-Hubert Tower121.300
Sponsored by: Air High Way

NOTICE

Unauthorized use prohibited. See LiveATC.net Terms of Service


Airport/ARTCC Code
Frequency Search
(e.g., 124.400, 128.75)
Site-wide search
 


Browse Feeds
Top 50 Feeds
HF Oceanic Feeds
Coverage Map
Bad Weather Areas

LiveATC FAQ
Offer LiveATC feed
Contact LiveATC.net
Press Inquiries

LiveATC on iPhone
LiveATC on Android

Windows Phone
Windows 8/10

LiveATC Mobile
(Mobile browser)

ATC Audio Archives
Interesting Recordings

LiveATC Forums


Home Page
About LiveATC.net
Make a Donation
Terms of Use
Privacy Policy

Canadian Air Freqs

AIRMETs/SIGMETs

FAA Airport Status
NAS Status
Arrival Demand


Server Software By:
Icecast.org
Liquidsoap